Terminal Aerodrome Forecast
Issued by NWS Cleveland, OH

Home | Current Version | Previous Version | Text Only | Print | Product List | Glossary Off
Versions: 1 2 3 4 5 6 7 8 9 10 11 12 13 14 15

885
FTUS41 KCLE 211140
TAFERI
TAF
KERI 211140Z 2112/2212 VRB04KT P6SM VCSH OVC080
     FM211400 12009KT P6SM -SHRA OVC050
     FM212200 05004KT P6SM VCSH OVC080
     FM220300 18004KT P6SM BKN120=

USA.gov is the U.S. government's official web portal to all federal, state and local government web resources and services.